»·PEaware :: DAL1097 KATL-KMIA

DAL1097 :: KATL-KMIA

FLIGHT INFORMATION

Flight Status: Arrived
Operator:
Delta Air Lines
More flights by this operator :: More flights under this callsign
Pilot: Adam A. (5112)
Aircraft: BOEING 767-300
(B763)
More flights by this aircraft type
Origin: KATL Hartsfield-Jackson Atlanta
United States
Destination: KMIA Miami Intl
United States
More flights between these airports :: More routes between these airports
Route: THRSR8 LUCKK SZW SSCOT3
File this flight plan on PilotEdge
Remarks:
Altitude:
(Current/Filed)
36,000ft
Speed:
(Current/Filed)
0kts
Departed: 08-Feb-16 04:32 PM
Arrived: 08-Feb-16 06:03 PM
Distance/Time
Traveled:
518nm/1:31
Distance/Time
To Go:
Arrived

Flight Plot

Page will automatically refresh every two minutes.


Map Options




Map Legend


Flown Route
Filed Route
Departure Airport
Arrival Airport
Navaid (VOR, NDB)
Fix

Horizontal Profiles

Position Reports

Time Latitude Longitude Heading Altitude Ground
Speed
08-Feb-16 15:55 33.637631 -84.438628 284 1034ft 0kts
08-Feb-16 15:56 33.637631 -84.438628 284 1033ft 0kts
08-Feb-16 15:57 33.637631 -84.438628 284 1033ft 0kts
08-Feb-16 15:58 33.637631 -84.438628 284 1033ft 0kts
08-Feb-16 15:59 33.637631 -84.438628 284 1033ft 0kts
08-Feb-16 16:00 33.637631 -84.438628 284 1033ft 0kts
08-Feb-16 16:01 33.637631 -84.438628 284 1033ft 0kts
08-Feb-16 16:02 33.637631 -84.438628 284 1033ft 0kts
08-Feb-16 16:03 33.637631 -84.438628 284 1033ft 0kts
08-Feb-16 16:04 33.637631 -84.438628 284 1033ft 0kts
08-Feb-16 16:05 33.637631 -84.438628 284 1033ft 0kts
08-Feb-16 16:06 33.637631 -84.438628 284 1033ft 0kts
08-Feb-16 16:07 33.637631 -84.438628 284 1033ft 0kts
08-Feb-16 16:08 33.637631 -84.438628 284 1033ft 0kts
08-Feb-16 16:09 33.637631 -84.438628 284 1033ft 0kts
08-Feb-16 16:10 33.637631 -84.438628 284 1033ft 0kts
08-Feb-16 16:11 33.637631 -84.438628 284 1033ft 0kts
08-Feb-16 16:12 33.637680 -84.438040 209 1033ft 1kts
08-Feb-16 16:13 33.638055 -84.437903 182 1033ft 0kts
08-Feb-16 16:14 33.638024 -84.437904 182 1033ft 1kts
08-Feb-16 16:15 33.637897 -84.437912 183 1033ft 0kts
08-Feb-16 16:16 33.637442 -84.437879 178 1033ft 0kts
08-Feb-16 16:17 33.637442 -84.437879 178 1033ft 0kts
08-Feb-16 16:18 33.637052 -84.437786 156 1033ft 17kts
08-Feb-16 16:19 33.636638 -84.431958 89 1033ft 19kts
08-Feb-16 16:20 33.636536 -84.425082 89 1033ft 25kts
08-Feb-16 16:21 33.636549 -84.418224 90 1033ft 22kts
08-Feb-16 16:22 33.636538 -84.410917 98 1033ft 16kts
08-Feb-16 16:23 33.635921 -84.409603 96 1033ft 12kts
08-Feb-16 16:24 33.635719 -84.409200 153 1033ft 0kts
08-Feb-16 16:25 33.634676 -84.409719 273 1033ft 0kts
08-Feb-16 16:26 33.634604 -84.422207 267 1130ft 155kts
08-Feb-16 16:27 33.634152 -84.487310 270 3949ft 231kts
08-Feb-16 16:28 33.634495 -84.565282 270 7978ft 242kts
08-Feb-16 16:29 33.632244 -84.645760 251 11490ft 264kts
08-Feb-16 16:30 33.573558 -84.694268 196 14687ft 300kts
08-Feb-16 16:31 33.491921 -84.689346 183 17550ft 322kts
08-Feb-16 16:32 33.405969 -84.681253 182 20173ft 338kts
08-Feb-16 16:33 33.311641 -84.631736 160 21281ft 419kts
08-Feb-16 16:34 33.212701 -84.572007 161 23899ft 432kts
08-Feb-16 16:35 33.109452 -84.510042 161 26191ft 446kts
08-Feb-16 16:36 33.001638 -84.445591 165 28159ft 461kts
08-Feb-16 16:37 32.885774 -84.420980 190 30166ft 433kts
08-Feb-16 16:38 32.768915 -84.417621 192 32258ft 434kts
08-Feb-16 16:39 32.652941 -84.415144 193 34660ft 419kts
08-Feb-16 16:40 32.536893 -84.412850 193 36264ft 416kts
08-Feb-16 16:41 32.422625 -84.410570 193 36883ft 413kts
08-Feb-16 16:42 32.308151 -84.408327 193 36900ft 418kts
08-Feb-16 16:43 32.189924 -84.405975 192 36897ft 428kts
08-Feb-16 16:44 32.070844 -84.403585 192 36892ft 430kts
08-Feb-16 16:45 31.951319 -84.401209 192 36892ft 430kts
08-Feb-16 16:46 31.831968 -84.398847 192 36891ft 430kts
08-Feb-16 16:47 31.713975 -84.396500 193 36884ft 428kts
08-Feb-16 16:48 31.596882 -84.394167 195 36880ft 421kts
08-Feb-16 16:49 31.481635 -84.391915 196 36878ft 414kts
08-Feb-16 16:50 31.369530 -84.389750 196 36888ft 412kts
08-Feb-16 16:51 31.256328 -84.387580 196 37239ft 414kts
08-Feb-16 16:52 31.143378 -84.385355 196 38351ft 413kts
08-Feb-16 16:53 31.029732 -84.383148 196 39207ft 412kts
08-Feb-16 16:54 30.916860 -84.380950 196 39940ft 411kts
08-Feb-16 16:55 30.809973 -84.378904 196 40379ft 413kts
08-Feb-16 16:56 30.697739 -84.376739 196 40739ft 417kts
08-Feb-16 16:57 30.589109 -84.374176 193 40895ft 424kts
08-Feb-16 16:58 30.472349 -84.320215 166 40910ft 494kts
08-Feb-16 16:59 30.377427 -84.256889 167 40910ft 490kts
08-Feb-16 17:00 30.261992 -84.181299 168 40912ft 490kts
08-Feb-16 17:01 30.146592 -84.106076 168 40913ft 490kts
08-Feb-16 17:02 30.030247 -84.030455 168 40915ft 490kts
08-Feb-16 17:03 29.912660 -83.954239 168 40916ft 490kts
08-Feb-16 17:04 29.795727 -83.878427 168 40881ft 490kts
08-Feb-16 17:05 29.677448 -83.801776 168 40886ft 490kts
08-Feb-16 17:06 29.558375 -83.725194 168 40887ft 490kts
08-Feb-16 17:07 29.439800 -83.649172 168 40892ft 490kts
08-Feb-16 17:08 29.320774 -83.573068 168 40900ft 490kts
08-Feb-16 17:09 29.201891 -83.497261 168 40901ft 490kts
08-Feb-16 17:10 29.083087 -83.421707 168 40902ft 490kts
08-Feb-16 17:11 28.964439 -83.346441 168 40903ft 490kts
08-Feb-16 17:12 28.846008 -83.275088 169 40942ft 485kts
08-Feb-16 17:13 28.728750 -83.205245 169 40969ft 485kts
08-Feb-16 17:14 28.610133 -83.134759 169 40973ft 485kts
08-Feb-16 17:15 28.490632 -83.063934 169 41002ft 486kts
08-Feb-16 17:16 28.371535 -82.993516 169 41019ft 486kts
08-Feb-16 17:17 28.251824 -82.922921 169 41021ft 486kts
08-Feb-16 17:18 28.132650 -82.851593 169 40990ft 486kts
08-Feb-16 17:19 28.013732 -82.779805 169 40991ft 486kts
08-Feb-16 17:20 27.895274 -82.715646 183 41000ft 452kts
08-Feb-16 17:21 27.775261 -82.675237 179 40992ft 461kts
08-Feb-16 17:22 27.655777 -82.630943 179 40984ft 462kts
08-Feb-16 17:23 27.534812 -82.585744 179 41005ft 462kts
08-Feb-16 17:24 27.414214 -82.540744 179 41022ft 462kts
08-Feb-16 17:25 27.292309 -82.495357 179 41033ft 463kts
08-Feb-16 17:26 27.170115 -82.449969 179 41058ft 463kts
08-Feb-16 17:27 27.047708 -82.404600 179 41058ft 463kts
08-Feb-16 17:28 26.925556 -82.359434 179 41058ft 463kts
08-Feb-16 17:29 26.803652 -82.314461 179 41059ft 463kts
08-Feb-16 17:30 26.681046 -82.269331 179 41060ft 463kts
08-Feb-16 17:31 26.561238 -82.209802 158 41066ft 513kts
08-Feb-16 17:33 26.350648 -81.986641 150 36758ft 529kts
08-Feb-16 17:34 26.246395 -81.876170 149 33793ft 499kts
08-Feb-16 17:35 26.151347 -81.759601 130 32072ft 539kts
08-Feb-16 17:36 26.096191 -81.600072 117 30003ft 543kts
08-Feb-16 17:37 26.048852 -81.452312 118 27975ft 489kts
08-Feb-16 17:38 26.004003 -81.313809 118 24901ft 466kts
08-Feb-16 17:39 25.961184 -81.182163 117 21941ft 443kts
08-Feb-16 17:40 25.920975 -81.059125 117 19098ft 408kts
08-Feb-16 17:41 25.881777 -80.940493 117 17573ft 413kts
08-Feb-16 17:42 25.852445 -80.827778 92 16101ft 406kts
08-Feb-16 17:43 25.858624 -80.702167 88 15496ft 411kts
08-Feb-16 17:44 25.848445 -80.582923 124 12873ft 373kts
08-Feb-16 17:45 25.797339 -80.483923 126 11163ft 372kts
08-Feb-16 17:46 25.746870 -80.389464 125 9451ft 345kts
08-Feb-16 17:47 25.702819 -80.296315 100 8881ft 351kts
08-Feb-16 17:48 25.706808 -80.191557 88 7802ft 316kts
08-Feb-16 17:49 25.710615 -80.099833 88 6431ft 288kts
08-Feb-16 17:50 25.725449 -80.016456 40 4921ft 275kts
08-Feb-16 17:51 25.782618 -80.024435 306 3066ft 214kts
08-Feb-16 17:52 25.794821 -80.084927 267 2950ft 209kts
08-Feb-16 17:53 25.792944 -80.146240 266 2318ft 182kts
08-Feb-16 17:54 25.790776 -80.201019 266 1464ft 176kts
08-Feb-16 17:55 25.789120 -80.241596 266 695ft 138kts
08-Feb-16 17:56 25.787428 -80.282257 266 19ft 123kts
08-Feb-16 17:57 25.788666 -80.298087 72 18ft 17kts
08-Feb-16 17:58 25.789230 -80.289534 75 18ft 0kts
08-Feb-16 17:59 25.790056 -80.285167 39 18ft 18kts
08-Feb-16 18:00 25.793424 -80.283828 36 18ft 2kts
08-Feb-16 18:01 25.793414 -80.284016 147 18ft 3kts
08-Feb-16 18:02 25.788131 -80.298503 2 18ft 22kts
08-Feb-16 18:03 25.788361 -80.260237 265 370ft 135kts
08-Feb-16 18:04 25.787749 -80.274924 265 56ft 134kts
08-Feb-16 18:05 25.792922 -80.284213 122 18ft 21kts

Navigation Log

Ident Type
Flight plan parsing failed, navigation log unavailable